KAVP Detailed METAR

Nearby METAR Reports

 

KAVP - Avoca/Wilkes B., Pennsylvania, USA
Distance from station: SW 13mi, 22km
Updated: Tue, 23-Apr-2024 15:54 EDT
Clear
Clear
 Wind from S
Wind: S 15 mph, 24 km/h, Gust: 30 mph, 48 km/h
Temperature: 68°F, 20°C
Dew Point: 28°F, -2°C
Humidity: 23%
Barometer: 29.92 inHg, 1013.2 hPa
Clouds: Clear
Visibility: 9 miles, 14 km
2024/04/23 19:54 KAVP 231954Z 19013G26KT 9SM CLR 20/M02 A2992 RMK AO2 PK WND 21026/1954 SLP131 T02001022
KMPO - Mt. Pocono, Pennsylvania, USA
Distance from station: SSE 26mi, 43km
Updated: Tue, 23-Apr-2024 15:53 EDT
Clear
Clear
 Wind from S
Wind: S 15 mph, 24 km/h, Gust: 30 mph, 48 km/h
Temperature: 61°F, 16°C
Dew Point: 30°F, -1°C
Humidity: 31%
Barometer: 29.97 inHg, 1014.9 hPa
Clouds: Clear
Visibility: 10 miles, 16 km
2024/04/23 19:53 KMPO 231953Z AUTO 19013G26KT 10SM CLR 16/M01 A2997 RMK AO2 PK WND 22026/1906 SLP157 T01561011
 
KMSV - Monticello, New York, USA
Distance from station: ENE 43mi, 69km
Updated: Tue, 05-Mar-2024 13:38 EST
NOT Current
Light rain, Mist, Overcast
Light rain, Mist, Overcast
 Wind from E
Wind: E 8 mph, 13 km/h
Temperature: 43°F, 6°C
Wind Chill: 38°F, 3°C
Dew Point: 41°F, 5°C
Humidity: 93%
Barometer: 30.09 inHg, 1019 hPa
Summary: Light rain, Mist
Clouds: Overcast
Visibility: 03 miles, 5 km
Cloud details: Overcast 400 ft
2024/03/05 18:38 KMSV 051838Z 09007KT 03SM -RA BR OVC004 06/05 A3009 RMK CIG003V008
KFWN - Sussex, New Jersey, USA
Distance from station: ESE 52mi, 84km
Updated: Tue, 23-Apr-2024 15:53 EDT
Clear
Clear
 Wind from S
Wind: S 8 mph, 13 km/h
Temperature: 66°F, 19°C
Dew Point: 36°F, 2°C
Humidity: 32%
Barometer: 29.97 inHg, 1014.9 hPa
Clouds: Clear
Visibility: 10 miles, 16 km
2024/04/23 19:53 KFWN 231953Z AUTO 18007KT 10SM CLR 19/02 A2997 RMK AO2 SLP151 T01940017
 
K12N - Andover, New Jersey, USA
Distance from station: SE 54mi, 87km
Updated: Tue, 23-Apr-2024 15:54 EDT

 Wind from SSW
Wind: SSW 9 mph, 15 km/h, Gust: 22 mph, 35 km/h
Temperature: 66°F, 19°C
Dew Point: 36°F, 2°C
Humidity: 32%
Barometer: 29.98 inHg, 1015.2 hPa
2024/04/23 19:54 K12N 231954Z AUTO 20008G19KT 19/02 A2998 RMK AO1 SLP155 T01890017
KBGM - Binghamton, New York, USA
Distance from station: NNW 55mi, 88km
Updated: Tue, 23-Apr-2024 15:53 EDT
Clear
Clear
 Wind from SW
Wind: SW 16 mph, 26 km/h, Gust: 26 mph, 43 km/h
Temperature: 66°F, 19°C
Dew Point: 27°F, -3°C
Humidity: 22%
Barometer: 29.87 inHg, 1011.5 hPa
Clouds: Clear
Visibility: 10 miles, 16 km
2024/04/23 19:53 KBGM 231953Z AUTO 22014G23KT 10SM CLR 19/M03 A2987 RMK AO2 PK WND 22028/1910 SLP115 T01891033
 
KABE - Allentown, Pennsylvania, USA
Distance from station: S 58mi, 94km
Updated: Tue, 23-Apr-2024 15:51 EDT
Clear
Clear
 Wind from S
Wind: S 15 mph, 24 km/h, Gust: 22 mph, 35 km/h
Temperature: 68°F, 20°C
Dew Point: 34°F, 1°C
Humidity: 28%
Barometer: 29.97 inHg, 1014.9 hPa
Clouds: Clear
Visibility: 10 miles, 16 km
2024/04/23 19:51 KABE 231951Z 18013G19KT 10SM CLR 20/01 A2997 RMK AO2 SLP150 T02000006
KXLL - Allentown Queen, Pennsylvania, USA
Distance from station: S 64mi, 103km
Updated: Tue, 23-Apr-2024 16:35 EDT
Clear
Clear
 Wind from S
Wind: S 9 mph, 15 km/h, Gust: 23 mph, 37 km/h
Temperature: 68°F, 20°C
Dew Point: 32°F, 0°C
Humidity: 26%
Barometer: 29.96 inHg, 1014.6 hPa
Clouds: Clear
Visibility: 10 miles, 16 km
2024/04/23 20:35 KXLL 232035Z AUTO 19008G20KT 10SM CLR 20/00 A2996 RMK AO2
 
KMGJ - Montgomery, New York, USA
Distance from station: E 67mi, 108km
Updated: Tue, 23-Apr-2024 15:54 EDT
Clear
Clear
 Wind from S
Wind: S 17 mph, 28 km/h, Gust: 28 mph, 44 km/h
Temperature: 64°F, 18°C
Dew Point: 34°F, 1°C
Humidity: 32%
Barometer: 29.94 inHg, 1013.9 hPa
Clouds: Clear
Visibility: 10 miles, 16 km
2024/04/23 19:54 KMGJ 231954Z AUTO 17015G24KT 10SM CLR 18/01 A2994 RMK AO2 PK WND 15029/1935 SLP139 T01780006
KIPT - Williamsport, Pennsylvania, USA
Distance from station: WSW 72mi, 116km
Updated: Tue, 23-Apr-2024 15:54 EDT
Clear
Clear
 Wind from SSE
Wind: SSE 17 mph, 28 km/h, Gust: 35 mph, 56 km/h
Temperature: 70°F, 21°C
Dew Point: 30°F, -1°C
Humidity: 23%
Barometer: 29.88 inHg, 1011.9 hPa
Clouds: Clear
Visibility: 10 miles, 16 km
2024/04/23 19:54 KIPT 231954Z 15015G30KT 10SM CLR 21/M01 A2988 RMK AO2 PK WND 14039/1932 SLP118 T02061011
 
KUKT - Quakertown Arp, Pennsylvania, USA
Distance from station: S 74mi, 119km
Updated: Tue, 23-Apr-2024 16:35 EDT
Clear
Clear
 Wind from SSE
Wind: SSE 12 mph, 19 km/h
Temperature: 66°F, 19°C
Dew Point: 34°F, 1°C
Humidity: 30%
Barometer: 29.96 inHg, 1014.6 hPa
Clouds: Clear
Visibility: 10 miles, 16 km
2024/04/23 20:35 KUKT 232035Z AUTO 15010KT 130V190 10SM CLR 19/01 A2996 RMK AO2
KSMQ - Somerville, New Jersey, USA
Distance from station: SE 76mi, 123km
Updated: Tue, 23-Apr-2024 15:53 EDT
Clear
Clear
 Wind from S
Wind: S 10 mph, 17 km/h, Gust: 22 mph, 35 km/h
Temperature: 68°F, 20°C
Dew Point: 34°F, 1°C
Humidity: 28%
Barometer: 29.98 inHg, 1015.2 hPa
Clouds: Clear
Visibility: 10 miles, 16 km
2024/04/23 19:53 KSMQ 231953Z AUTO 19009G19KT 10SM CLR 20/01 A2998 RMK AO2 SLP151 T02000011
 
KSWF - Newburgh/Stewart, New York, USA
Distance from station: E 77mi, 123km
Updated: Tue, 23-Apr-2024 15:45 EDT
Clear
Clear
 Wind from SSE
Wind: SSE 15 mph, 24 km/h, Gust: 28 mph, 44 km/h
Temperature: 63°F, 17°C
Dew Point: 36°F, 2°C
Humidity: 37%
Barometer: 29.97 inHg, 1014.9 hPa
Clouds: Clear
Visibility: 10 miles, 16 km
2024/04/23 19:45 KSWF 231945Z 16013G24KT 10SM SKC 17/02 A2997
KMMU - Morristown Muni, New Jersey, USA
Distance from station: SE 77mi, 124km
Updated: Tue, 23-Apr-2024 15:45 EDT
Partly cloudy
Partly cloudy
 Wind from SSE
Wind: SSE 17 mph, 28 km/h, Gust: 23 mph, 37 km/h
Temperature: 63°F, 17°C
Dew Point: 37°F, 3°C
Humidity: 39%
Barometer: 30.01 inHg, 1016.3 hPa
Clouds: Partly cloudy
Visibility: 10 miles, 16 km
Cloud details: Partly cloudy 25000 ft
2024/04/23 19:45 KMMU 231945Z 16015G20KT 10SM SCT250 17/03 A3001
 
KCDW - Caldwell, New Jersey, USA
Distance from station: ESE 79mi, 127km
Updated: Tue, 23-Apr-2024 15:53 EDT
Clear
Clear
 Wind from SSE
Wind: SSE 18 mph, 30 km/h, Gust: 30 mph, 48 km/h
Temperature: 61°F, 16°C
Dew Point: 28°F, -2°C
Humidity: 29%
Barometer: 30.01 inHg, 1016.3 hPa
Clouds: Clear
Visibility: 10 miles, 16 km
2024/04/23 19:53 KCDW 231953Z AUTO 15016G26KT 10SM CLR 16/M02 A3001 RMK AO2 PK WND 13027/1906 SLP168 T01611017
KRDG - Reading, Pennsylvania, USA
Distance from station: SSW 80mi, 130km
Updated: Tue, 23-Apr-2024 15:54 EDT
Clear
Clear
 Wind from SSE
Wind: SSE 12 mph, 19 km/h, Gust: 22 mph, 35 km/h
Temperature: 70°F, 21°C
Dew Point: 36°F, 2°C
Humidity: 29%
Barometer: 29.95 inHg, 1014.2 hPa
Clouds: Clear
Visibility: 10 miles, 16 km
2024/04/23 19:54 KRDG 231954Z 15010G19KT 10SM CLR 21/02 A2995 RMK AO2 PRESFR SLP148 T02060022
 
KITH - Ithaca/Tompkins, New York, USA
Distance from station: NW 81mi, 131km
Updated: Tue, 23-Apr-2024 15:56 EDT
Clear
Clear
 Wind from S
Wind: S 17 mph, 28 km/h, Gust: 24 mph, 39 km/h
Temperature: 66°F, 19°C
Dew Point: 30°F, -1°C
Humidity: 26%
Barometer: 29.84 inHg, 1010.5 hPa
Clouds: Clear
Visibility: 10 miles, 16 km
2024/04/23 19:56 KITH 231956Z 19015G21KT 10SM CLR 19/M01 A2984 RMK AO2 SLP107 T01941011
KSEG - Selinsgrove, Pennsylvania, USA
Distance from station: SW 82mi, 132km
Updated: Tue, 23-Apr-2024 15:53 EDT
Clear
Clear
 Wind from S
Wind: S 15 mph, 24 km/h, Gust: 26 mph, 43 km/h
Temperature: 66°F, 19°C
Dew Point: 37°F, 3°C
Humidity: 35%
Barometer: 29.92 inHg, 1013.2 hPa
Clouds: Clear
Visibility: 10 miles, 16 km
2024/04/23 19:53 KSEG 231953Z AUTO 17013G23KT 10SM CLR 19/03 A2992 RMK AO2 SLP131 T01890028
 
KELM - Elmira, New York, USA
Distance from station: WNW 82mi, 133km
Updated: Tue, 23-Apr-2024 15:53 EDT
Clear
Clear
 Wind from SSW
Wind: SSW 13 mph, 20 km/h, Gust: 33 mph, 54 km/h
Temperature: 70°F, 21°C
Dew Point: 28°F, -2°C
Humidity: 21%
Barometer: 29.83 inHg, 1010.2 hPa
Clouds: Clear
Visibility: 10 miles, 16 km
2024/04/23 19:53 KELM 231953Z 20011G29KT 10SM CLR 21/M02 A2983 RMK AO2 PK WND 21029/1945 SLP103 T02111022
KDYL - Doylestown, Pennsylvania, USA
Distance from station: SSE 83mi, 134km
Updated: Tue, 23-Apr-2024 15:54 EDT
Clear
Clear
 Wind from WSW
Wind: WSW 9 mph, 15 km/h
Temperature: 66°F, 19°C
Dew Point: 32°F, 0°C
Humidity: 28%
Barometer: 30.00 inHg, 1015.9 hPa
Clouds: Clear
Visibility: 10 miles, 16 km
2024/04/23 19:54 KDYL 231954Z AUTO 24008KT 10SM CLR 19/00 A3000 RMK AO2 SLP161 T01940000